Midnight Dream — 3EKF5 — position and weather

sailwx.info

Track history (hours):
 
Tides and Currents Weather Stations Pressure Air Temp Water Temp Dewpoint Dewpoint Depression Visibility Wind Speed Wind Dir Waves Ship Positions

Midnight Dream

Last reported at 2016-Feb-03 19:32 UTC. Time now 2016-Feb-06 09:07 UTC.
Position N 18°24' W 064°36'.

Length 90 m; draft 4.5 m.

Type: Cargo ship. MMSI: 372708000.

Date/timePositionNaut miles runAvg speedWind from/ knotsBaromVisibWave heightAir tempDewpointWater temp
2016-Feb-03 19:32N 18°24' W 064°36'0 0.0
2016-Feb-03 18:32N 18°24' W 064°36'0 0.0
2016-Feb-03 17:32N 18°24' W 064°36'0 0.0
2016-Feb-03 16:32N 18°24' W 064°36'0 0.0
2016-Feb-03 15:32N 18°24' W 064°36'0 0.0
2016-Feb-03 14:32N 18°24' W 064°36'0 0.0
2016-Feb-03 13:21N 18°24' W 064°36'13210.3
2016-Feb-03 00:33N 17°26' W 062°32'1010.3
2016-Feb-02 23:33N 17°22' W 062°22'1010.1
2016-Feb-02 22:33N 17°17' W 062°13'1010.1
2016-Feb-02 21:33N 17°13' W 062°03'1110.6
2016-Feb-02 20:33N 17°08' W 061°53'2 1.8
2016-Feb-02 19:31N 17°07' W 061°51'0 0.0
2016-Feb-02 18:28N 17°07' W 061°51'0 0.0
2016-Feb-02 17:31N 17°07' W 061°51'0 0.0
2016-Feb-02 16:31N 17°07' W 061°51'0 0.0
2016-Feb-02 15:31N 17°07' W 061°51'0 0.0
2016-Feb-02 14:31N 17°07' W 061°51'0 0.0
2016-Feb-02 13:34N 17°07' W 061°51'0 0.0
2016-Feb-02 12:34N 17°07' W 061°51'3 2.6
2016-Feb-02 11:33N 17°09' W 061°54'1 0.8
2016-Feb-02 10:33N 17°09' W 061°54'0 0.0
2016-Feb-02 09:33N 17°09' W 061°54'0 0.0
2016-Feb-02 08:33N 17°09' W 061°54'0 0.0
2016-Feb-02 07:30N 17°09' W 061°54'0 0.0
2016-Feb-02 06:33N 17°09' W 061°54'0 0.0
2016-Feb-02 05:33N 17°09' W 061°54'0 0.1
2016-Feb-02 04:33N 17°09' W 061°54'8 8.0
2016-Feb-02 03:33N 17°12' W 062°01'10 9.7
2016-Feb-02 02:33N 17°15' W 062°11'9 9.5
2016-Feb-02 01:33N 17°20' W 062°20'146 9.1
2016-Feb-01 09:31N 18°13' W 064°42'9 9.2
2016-Feb-01 08:34N 18°16' W 064°51'2 0.1
2016-Jan-31 13:29N 18°17' W 064°52'1410.8
2016-Jan-31 12:13N 18°20' W 064°38'5 0.1
2016-Jan-29 14:29N 18°25' W 064°36'1 0.7
2016-Jan-29 13:28N 18°24' W 064°35'0 0.1
2016-Jan-29 12:18N 18°25' W 064°36'0 0.0
2016-Jan-29 11:18N 18°25' W 064°36'0 0.0
2016-Jan-29 10:30N 18°25' W 064°36'0 0.0
2016-Jan-29 09:23N 18°24' W 064°36'0 0.0
2016-Jan-29 08:23N 18°24' W 064°36'0 0.0
2016-Jan-29 07:29N 18°24' W 064°36'0 0.0
2016-Jan-29 06:29N 18°24' W 064°36'0 0.0
2016-Jan-29 05:23N 18°24' W 064°36'0 0.0
2016-Jan-29 04:23N 18°24' W 064°36'0 0.0
2016-Jan-29 03:29N 18°24' W 064°36'0 0.0
2016-Jan-29 02:29N 18°25' W 064°36'0 0.0
2016-Jan-29 00:05N 18°24' W 064°36'0 0.0
2016-Jan-28 23:29N 18°24' W 064°36'0 0.0
2016-Jan-28 21:29N 18°24' W 064°36'0 0.0
2016-Jan-28 19:23N 18°24' W 064°36'0 0.0
2016-Jan-28 17:17N 18°24' W 064°36'0 0.0
2016-Jan-28 14:16N 18°24' W 064°36'0 0.0
2016-Jan-28 12:22N 18°24' W 064°36'0 0.0
2016-Jan-28 11:15N 18°24' W 064°36'0 0.1
2016-Jan-28 10:33N 18°24' W 064°36'0 0.0
2016-Jan-28 09:26N 18°24' W 064°36'0 0.0
2016-Jan-28 08:14N 18°24' W 064°36'0 0.0
2016-Jan-28 07:26N 18°24' W 064°36'0 0.0
2016-Jan-28 06:32N 18°24' W 064°36'0 0.0
2016-Jan-28 05:20N 18°24' W 064°36'0 0.0
2016-Jan-28 03:32N 18°24' W 064°36'0 0.0
2016-Jan-28 02:32N 18°24' W 064°36'0 0.0
2016-Jan-28 01:26N 18°24' W 064°36'0 0.0
2016-Jan-28 00:31N 18°24' W 064°36'0 0.0
2016-Jan-27 23:31N 18°24' W 064°36'0 0.0
2016-Jan-27 22:19N 18°24' W 064°36'0 0.1
2016-Jan-27 21:31N 18°24' W 064°36'3 0.6
2016-Jan-27 15:33N 18°22' W 064°33'159 9.7
2016-Jan-26 23:11N 16°51' W 062°16'4 6.8
2016-Jan-26 22:33N 16°48' W 062°12'0 0.0
2016-Jan-26 21:33N 16°48' W 062°12'0 0.1
2016-Jan-26 20:29N 16°48' W 062°13'8 8.4
2016-Jan-26 19:33N 16°55' W 062°08'1212.1
2016-Jan-26 18:33N 17°03' W 061°60'9 8.7
2016-Jan-26 17:32N 17°07' W 061°51'0 0.0
2016-Jan-26 16:31N 17°07' W 061°51'0 0.0
2016-Jan-26 15:31N 17°07' W 061°51'0 0.0
2016-Jan-26 14:31N 17°07' W 061°51'0 0.0
2016-Jan-26 13:31N 17°07' W 061°51'0 0.3
2016-Jan-26 12:34N 17°07' W 061°52'3 2.8
2016-Jan-26 11:33N 17°09' W 061°54'0 0.0
2016-Jan-26 10:30N 17°09' W 061°54'0 0.0
2016-Jan-26 09:30N 17°09' W 061°54'0 0.0
2016-Jan-26 08:30N 17°09' W 061°54'0 0.0
2016-Jan-26 07:33N 17°09' W 061°54'0 0.0
2016-Jan-26 06:33N 17°09' W 061°54'0 0.0
2016-Jan-26 05:33N 17°09' W 061°54'3 3.1
2016-Jan-26 04:33N 17°09' W 061°57'9 9.4
2016-Jan-26 03:33N 17°08' W 062°07'165 9.5
2016-Jan-25 10:13N 18°14' W 064°45'912.7
2016-Jan-25 09:33N 18°17' W 064°54'  
Track history (hours):
 
Tides and Currents Weather Stations Pressure Air Temp Water Temp Dewpoint Dewpoint Depression Visibility Wind Speed Wind Dir Waves Ship Positions

Midnight Dream

Last reported at 2016-Feb-03 19:32 UTC. Time now 2016-Feb-06 09:07 UTC.
Position N 18°24' W 064°36'.

Length 90 m; draft 4.5 m.

Type: Cargo ship. MMSI: 372708000.

Date/timePositionNaut miles runAvg speedWind from/ knotsBaromVisibWave heightAir tempDewpointWater temp
2016-Feb-03 19:32N 18°24' W 064°36'0 0.0
2016-Feb-03 18:32N 18°24' W 064°36'0 0.0
2016-Feb-03 17:32N 18°24' W 064°36'0 0.0
2016-Feb-03 16:32N 18°24' W 064°36'0 0.0
2016-Feb-03 15:32N 18°24' W 064°36'0 0.0
2016-Feb-03 14:32N 18°24' W 064°36'0 0.0
2016-Feb-03 13:21N 18°24' W 064°36'13210.3
2016-Feb-03 00:33N 17°26' W 062°32'1010.3
2016-Feb-02 23:33N 17°22' W 062°22'1010.1
2016-Feb-02 22:33N 17°17' W 062°13'1010.1
2016-Feb-02 21:33N 17°13' W 062°03'1110.6
2016-Feb-02 20:33N 17°08' W 061°53'2 1.8
2016-Feb-02 19:31N 17°07' W 061°51'0 0.0
2016-Feb-02 18:28N 17°07' W 061°51'0 0.0
2016-Feb-02 17:31N 17°07' W 061°51'0 0.0
2016-Feb-02 16:31N 17°07' W 061°51'0 0.0
2016-Feb-02 15:31N 17°07' W 061°51'0 0.0
2016-Feb-02 14:31N 17°07' W 061°51'0 0.0
2016-Feb-02 13:34N 17°07' W 061°51'0 0.0
2016-Feb-02 12:34N 17°07' W 061°51'3 2.6
2016-Feb-02 11:33N 17°09' W 061°54'1 0.8
2016-Feb-02 10:33N 17°09' W 061°54'0 0.0
2016-Feb-02 09:33N 17°09' W 061°54'0 0.0
2016-Feb-02 08:33N 17°09' W 061°54'0 0.0
2016-Feb-02 07:30N 17°09' W 061°54'0 0.0
2016-Feb-02 06:33N 17°09' W 061°54'0 0.0
2016-Feb-02 05:33N 17°09' W 061°54'0 0.1
2016-Feb-02 04:33N 17°09' W 061°54'8 8.0
2016-Feb-02 03:33N 17°12' W 062°01'10 9.7
2016-Feb-02 02:33N 17°15' W 062°11'9 9.5
2016-Feb-02 01:33N 17°20' W 062°20'146 9.1
2016-Feb-01 09:31N 18°13' W 064°42'9 9.2
2016-Feb-01 08:34N 18°16' W 064°51'2 0.1
2016-Jan-31 13:29N 18°17' W 064°52'1410.8
2016-Jan-31 12:13N 18°20' W 064°38'5 0.1
2016-Jan-29 14:29N 18°25' W 064°36'1 0.7
2016-Jan-29 13:28N 18°24' W 064°35'0 0.1
2016-Jan-29 12:18N 18°25' W 064°36'0 0.0
2016-Jan-29 11:18N 18°25' W 064°36'0 0.0
2016-Jan-29 10:30N 18°25' W 064°36'0 0.0
2016-Jan-29 09:23N 18°24' W 064°36'0 0.0
2016-Jan-29 08:23N 18°24' W 064°36'0 0.0
2016-Jan-29 07:29N 18°24' W 064°36'0 0.0
2016-Jan-29 06:29N 18°24' W 064°36'0 0.0
2016-Jan-29 05:23N 18°24' W 064°36'0 0.0
2016-Jan-29 04:23N 18°24' W 064°36'0 0.0
2016-Jan-29 03:29N 18°24' W 064°36'0 0.0
2016-Jan-29 02:29N 18°25' W 064°36'0 0.0
2016-Jan-29 00:05N 18°24' W 064°36'0 0.0
2016-Jan-28 23:29N 18°24' W 064°36'0 0.0
2016-Jan-28 21:29N 18°24' W 064°36'0 0.0
2016-Jan-28 19:23N 18°24' W 064°36'0 0.0
2016-Jan-28 17:17N 18°24' W 064°36'0 0.0
2016-Jan-28 14:16N 18°24' W 064°36'0 0.0
2016-Jan-28 12:22N 18°24' W 064°36'0 0.0
2016-Jan-28 11:15N 18°24' W 064°36'0 0.1
2016-Jan-28 10:33N 18°24' W 064°36'0 0.0
2016-Jan-28 09:26N 18°24' W 064°36'0 0.0
2016-Jan-28 08:14N 18°24' W 064°36'0 0.0
2016-Jan-28 07:26N 18°24' W 064°36'0 0.0
2016-Jan-28 06:32N 18°24' W 064°36'0 0.0
2016-Jan-28 05:20N 18°24' W 064°36'0 0.0
2016-Jan-28 03:32N 18°24' W 064°36'0 0.0
2016-Jan-28 02:32N 18°24' W 064°36'0 0.0
2016-Jan-28 01:26N 18°24' W 064°36'0 0.0
2016-Jan-28 00:31N 18°24' W 064°36'0 0.0
2016-Jan-27 23:31N 18°24' W 064°36'0 0.0
2016-Jan-27 22:19N 18°24' W 064°36'0 0.1
2016-Jan-27 21:31N 18°24' W 064°36'3 0.6
2016-Jan-27 15:33N 18°22' W 064°33'159 9.7
2016-Jan-26 23:11N 16°51' W 062°16'4 6.8
2016-Jan-26 22:33N 16°48' W 062°12'0 0.0
2016-Jan-26 21:33N 16°48' W 062°12'0 0.1
2016-Jan-26 20:29N 16°48' W 062°13'8 8.4
2016-Jan-26 19:33N 16°55' W 062°08'1212.1
2016-Jan-26 18:33N 17°03' W 061°60'9 8.7
2016-Jan-26 17:32N 17°07' W 061°51'0 0.0
2016-Jan-26 16:31N 17°07' W 061°51'0 0.0
2016-Jan-26 15:31N 17°07' W 061°51'0 0.0
2016-Jan-26 14:31N 17°07' W 061°51'0 0.0
2016-Jan-26 13:31N 17°07' W 061°51'0 0.3
2016-Jan-26 12:34N 17°07' W 061°52'3 2.8
2016-Jan-26 11:33N 17°09' W 061°54'0 0.0
2016-Jan-26 10:30N 17°09' W 061°54'0 0.0
2016-Jan-26 09:30N 17°09' W 061°54'0 0.0
2016-Jan-26 08:30N 17°09' W 061°54'0 0.0
2016-Jan-26 07:33N 17°09' W 061°54'0 0.0
2016-Jan-26 06:33N 17°09' W 061°54'0 0.0
2016-Jan-26 05:33N 17°09' W 061°54'3 3.1
2016-Jan-26 04:33N 17°09' W 061°57'9 9.4
2016-Jan-26 03:33N 17°08' W 062°07'165 9.5
2016-Jan-25 10:13N 18°14' W 064°45'912.7
2016-Jan-25 09:33N 18°17' W 064°54'  

Dump ship's entire track history